sensor_id;sensor_type;location;lat;lon;timestamp;temperature;humidity
45765;DHT22;31474;45.332;10.230;2022-09-16T00:02:19;23.20;99.90
45765;DHT22;31474;45.332;10.230;2022-09-16T00:04:45;23.30;99.90
45765;DHT22;31474;45.332;10.230;2022-09-16T00:07:11;23.30;99.90
45765;DHT22;31474;45.332;10.230;2022-09-16T00:09:37;23.40;99.90
45765;DHT22;31474;45.332;10.230;2022-09-16T00:12:06;23.30;99.90
45765;DHT22;31474;45.332;10.230;2022-09-16T00:14:32;23.40;99.90
45765;DHT22;31474;45.332;10.230;2022-09-16T00:16:58;23.40;99.90
45765;DHT22;31474;45.332;10.230;2022-09-16T00:19:24;23.40;99.90
45765;DHT22;31474;45.332;10.230;2022-09-16T00:21:49;23.40;99.90
45765;DHT22;31474;45.332;10.230;2022-09-16T00:24:16;23.30;99.90
45765;DHT22;31474;45.332;10.230;2022-09-16T00:26:42;23.30;99.90
45765;DHT22;31474;45.332;10.230;2022-09-16T00:29:08;23.20;99.90
45765;DHT22;31474;45.332;10.230;2022-09-16T00:31:34;23.20;99.90
45765;DHT22;31474;45.332;10.230;2022-09-16T00:34:00;23.20;99.90
45765;DHT22;31474;45.332;10.230;2022-09-16T00:36:26;23.20;99.90
45765;DHT22;31474;45.332;10.230;2022-09-16T00:38:53;23.20;99.90
45765;DHT22;31474;45.332;10.230;2022-09-16T00:41:26;23.20;99.90
45765;DHT22;31474;45.332;10.230;2022-09-16T00:43:57;23.20;99.90
45765;DHT22;31474;45.332;10.230;2022-09-16T00:46:31;23.10;99.90
45765;DHT22;31474;45.332;10.230;2022-09-16T00:49:03;23.10;99.90
45765;DHT22;31474;45.332;10.230;2022-09-16T00:51:30;23.10;99.90
45765;DHT22;31474;45.332;10.230;2022-09-16T00:53:58;23.20;99.90
45765;DHT22;31474;45.332;10.230;2022-09-16T00:56:28;23.20;99.90
45765;DHT22;31474;45.332;10.230;2022-09-16T00:58:57;23.10;99.90
45765;DHT22;31474;45.332;10.230;2022-09-16T01:01:29;23.10;99.90
45765;DHT22;31474;45.332;10.230;2022-09-16T01:04:01;23.10;99.90
45765;DHT22;31474;45.332;10.230;2022-09-16T01:06:27;23.00;99.90
45765;DHT22;31474;45.332;10.230;2022-09-16T01:08:55;22.80;99.90
45765;DHT22;31474;45.332;10.230;2022-09-16T01:11:22;22.70;99.90
45765;DHT22;31474;45.332;10.230;2022-09-16T01:13:48;22.70;99.90
45765;DHT22;31474;45.332;10.230;2022-09-16T01:16:29;22.70;99.90
45765;DHT22;31474;45.332;10.230;2022-09-16T01:25:40;22.60;99.90
45765;DHT22;31474;45.332;10.230;2022-09-16T01:33:32;22.60;99.90
45765;DHT22;31474;45.332;10.230;2022-09-16T01:37:11;22.50;99.90
45765;DHT22;31474;45.332;10.230;2022-09-16T01:42:18;22.50;99.90
45765;DHT22;31474;45.332;10.230;2022-09-16T01:44:52;22.50;99.90
45765;DHT22;31474;45.332;10.230;2022-09-16T01:50:05;22.60;99.90
45765;DHT22;31474;45.332;10.230;2022-09-16T01:53:07;22.60;99.90
45765;DHT22;31474;45.332;10.230;2022-09-16T01:56:02;22.60;99.90
45765;DHT22;31474;45.332;10.230;2022-09-16T01:58:32;22.60;99.90
45765;DHT22;31474;45.332;10.230;2022-09-16T02:01:04;22.60;99.90
45765;DHT22;31474;45.332;10.230;2022-09-16T02:03:33;22.60;99.90
45765;DHT22;31474;45.332;10.230;2022-09-16T02:06:09;22.60;99.90
45765;DHT22;31474;45.332;10.230;2022-09-16T02:09:04;22.50;99.90
45765;DHT22;31474;45.332;10.230;2022-09-16T02:11:32;22.50;99.90
45765;DHT22;31474;45.332;10.230;2022-09-16T02:14:07;22.50;99.90
45765;DHT22;31474;45.332;10.230;2022-09-16T02:16:39;22.50;99.90
45765;DHT22;31474;45.332;10.230;2022-09-16T02:19:11;22.40;99.90
45765;DHT22;31474;45.332;10.230;2022-09-16T02:21:38;22.50;99.90
45765;DHT22;31474;45.332;10.230;2022-09-16T02:24:08;22.30;99.90
45765;DHT22;31474;45.332;10.230;2022-09-16T02:26:39;22.40;99.90
45765;DHT22;31474;45.332;10.230;2022-09-16T02:29:11;22.40;99.90
45765;DHT22;31474;45.332;10.230;2022-09-16T02:31:40;22.40;99.90
45765;DHT22;31474;45.332;10.230;2022-09-16T02:34:15;22.40;99.90
45765;DHT22;31474;45.332;10.230;2022-09-16T02:36:45;22.50;99.90
45765;DHT22;31474;45.332;10.230;2022-09-16T02:39:15;22.40;99.90
45765;DHT22;31474;45.332;10.230;2022-09-16T02:41:43;22.40;99.90
45765;DHT22;31474;45.332;10.230;2022-09-16T02:44:09;22.40;99.90
45765;DHT22;31474;45.332;10.230;2022-09-16T02:47:02;22.40;99.90
45765;DHT22;31474;45.332;10.230;2022-09-16T02:49:38;22.50;99.90
45765;DHT22;31474;45.332;10.230;2022-09-16T02:55:03;22.40;99.90
45765;DHT22;31474;45.332;10.230;2022-09-16T02:57:35;22.40;99.90
45765;DHT22;31474;45.332;10.230;2022-09-16T03:00:00;22.30;99.90
45765;DHT22;31474;45.332;10.230;2022-09-16T03:02:26;22.30;99.90
45765;DHT22;31474;45.332;10.230;2022-09-16T03:04:52;22.30;99.90
45765;DHT22;31474;45.332;10.230;2022-09-16T03:07:17;22.40;99.90
45765;DHT22;31474;45.332;10.230;2022-09-16T03:09:46;22.50;99.90
45765;DHT22;31474;45.332;10.230;2022-09-16T03:20:46;22.50;99.90
45765;DHT22;31474;45.332;10.230;2022-09-16T03:23:25;22.30;99.90
45765;DHT22;31474;45.332;10.230;2022-09-16T03:26:14;22.20;99.90
45765;DHT22;31474;45.332;10.230;2022-09-16T03:29:00;22.20;99.90
45765;DHT22;31474;45.332;10.230;2022-09-16T03:31:30;22.20;99.90
45765;DHT22;31474;45.332;10.230;2022-09-16T03:36:31;22.20;99.90
45765;DHT22;31474;45.332;10.230;2022-09-16T03:39:00;22.20;99.90
45765;DHT22;31474;45.332;10.230;2022-09-16T03:41:28;22.20;99.90
45765;DHT22;31474;45.332;10.230;2022-09-16T03:43:57;22.10;99.90
45765;DHT22;31474;45.332;10.230;2022-09-16T03:46:24;22.00;99.90
45765;DHT22;31474;45.332;10.230;2022-09-16T03:48:51;22.00;99.90
45765;DHT22;31474;45.332;10.230;2022-09-16T03:51:17;21.90;99.90
45765;DHT22;31474;45.332;10.230;2022-09-16T03:53:43;22.00;99.90
45765;DHT22;31474;45.332;10.230;2022-09-16T03:56:08;22.00;99.90
45765;DHT22;31474;45.332;10.230;2022-09-16T03:58:34;22.00;99.90
45765;DHT22;31474;45.332;10.230;2022-09-16T04:01:00;21.90;99.90
45765;DHT22;31474;45.332;10.230;2022-09-16T04:03:25;21.90;99.90
45765;DHT22;31474;45.332;10.230;2022-09-16T04:05:54;21.90;99.90
45765;DHT22;31474;45.332;10.230;2022-09-16T04:08:21;22.00;99.90
45765;DHT22;31474;45.332;10.230;2022-09-16T04:11:13;22.00;99.90
45765;DHT22;31474;45.332;10.230;2022-09-16T04:13:38;22.00;99.90
45765;DHT22;31474;45.332;10.230;2022-09-16T04:16:04;22.00;99.90
45765;DHT22;31474;45.332;10.230;2022-09-16T04:18:31;22.00;99.90
45765;DHT22;31474;45.332;10.230;2022-09-16T04:20:57;22.00;99.90
45765;DHT22;31474;45.332;10.230;2022-09-16T04:23:27;22.00;99.90
45765;DHT22;31474;45.332;10.230;2022-09-16T04:25:58;22.00;99.90
45765;DHT22;31474;45.332;10.230;2022-09-16T04:28:24;22.10;99.90
45765;DHT22;31474;45.332;10.230;2022-09-16T04:30:50;22.00;99.90
45765;DHT22;31474;45.332;10.230;2022-09-16T04:33:16;22.00;99.90
45765;DHT22;31474;45.332;10.230;2022-09-16T04:35:42;22.10;99.90
45765;DHT22;31474;45.332;10.230;2022-09-16T04:38:07;22.00;99.90
45765;DHT22;31474;45.332;10.230;2022-09-16T04:40:33;22.10;99.90
45765;DHT22;31474;45.332;10.230;2022-09-16T04:42:59;22.10;99.90
45765;DHT22;31474;45.332;10.230;2022-09-16T04:45:24;22.00;99.90
45765;DHT22;31474;45.332;10.230;2022-09-16T04:47:57;22.00;99.90
45765;DHT22;31474;45.332;10.230;2022-09-16T04:50:23;22.10;99.90
45765;DHT22;31474;45.332;10.230;2022-09-16T04:52:49;22.00;99.90
45765;DHT22;31474;45.332;10.230;2022-09-16T04:55:19;22.00;99.90
45765;DHT22;31474;45.332;10.230;2022-09-16T04:57:47;22.00;99.90
45765;DHT22;31474;45.332;10.230;2022-09-16T05:00:13;22.00;99.90
45765;DHT22;31474;45.332;10.230;2022-09-16T05:02:42;22.00;99.90
45765;DHT22;31474;45.332;10.230;2022-09-16T05:05:08;22.10;99.90
45765;DHT22;31474;45.332;10.230;2022-09-16T05:07:33;22.00;99.90
45765;DHT22;31474;45.332;10.230;2022-09-16T05:09:59;22.00;99.90
45765;DHT22;31474;45.332;10.230;2022-09-16T05:12:25;22.00;99.90
45765;DHT22;31474;45.332;10.230;2022-09-16T05:14:50;22.00;99.90
45765;DHT22;31474;45.332;10.230;2022-09-16T05:17:16;22.00;99.90
45765;DHT22;31474;45.332;10.230;2022-09-16T05:19:42;22.00;99.90
45765;DHT22;31474;45.332;10.230;2022-09-16T05:22:07;22.00;99.90
45765;DHT22;31474;45.332;10.230;2022-09-16T05:24:34;22.00;99.90
45765;DHT22;31474;45.332;10.230;2022-09-16T05:27:02;22.00;99.90
45765;DHT22;31474;45.332;10.230;2022-09-16T05:29:28;22.00;99.90
45765;DHT22;31474;45.332;10.230;2022-09-16T05:31:53;21.90;99.90
45765;DHT22;31474;45.332;10.230;2022-09-16T05:34:21;22.00;99.90
45765;DHT22;31474;45.332;10.230;2022-09-16T05:36:48;22.00;99.90
45765;DHT22;31474;45.332;10.230;2022-09-16T05:39:15;22.10;99.90
45765;DHT22;31474;45.332;10.230;2022-09-16T05:41:43;22.10;99.90
45765;DHT22;31474;45.332;10.230;2022-09-16T05:44:09;22.20;99.90
45765;DHT22;31474;45.332;10.230;2022-09-16T05:46:35;22.30;99.90
45765;DHT22;31474;45.332;10.230;2022-09-16T05:49:00;22.40;99.90
45765;DHT22;31474;45.332;10.230;2022-09-16T05:51:26;22.40;99.90
45765;DHT22;31474;45.332;10.230;2022-09-16T05:53:53;22.50;99.90
45765;DHT22;31474;45.332;10.230;2022-09-16T05:56:21;22.60;99.90
45765;DHT22;31474;45.332;10.230;2022-09-16T05:58:47;22.60;99.90
45765;DHT22;31474;45.332;10.230;2022-09-16T06:01:19;22.60;99.90
45765;DHT22;31474;45.332;10.230;2022-09-16T06:03:46;22.70;99.90
45765;DHT22;31474;45.332;10.230;2022-09-16T06:06:25;22.70;99.90
45765;DHT22;31474;45.332;10.230;2022-09-16T06:08:54;22.70;99.90
45765;DHT22;31474;45.332;10.230;2022-09-16T06:11:21;22.80;99.90
45765;DHT22;31474;45.332;10.230;2022-09-16T06:13:52;22.80;99.90
45765;DHT22;31474;45.332;10.230;2022-09-16T06:16:20;22.80;99.90
45765;DHT22;31474;45.332;10.230;2022-09-16T06:18:46;22.90;99.90
45765;DHT22;31474;45.332;10.230;2022-09-16T06:21:12;23.00;99.90
45765;DHT22;31474;45.332;10.230;2022-09-16T06:23:38;23.10;99.90
45765;DHT22;31474;45.332;10.230;2022-09-16T06:26:07;23.10;99.90
45765;DHT22;31474;45.332;10.230;2022-09-16T06:28:33;23.20;99.90
45765;DHT22;31474;45.332;10.230;2022-09-16T06:31:04;23.30;99.90
45765;DHT22;31474;45.332;10.230;2022-09-16T06:33:31;23.40;99.90
45765;DHT22;31474;45.332;10.230;2022-09-16T06:35:57;23.50;99.90
45765;DHT22;31474;45.332;10.230;2022-09-16T06:38:26;23.50;99.90
45765;DHT22;31474;45.332;10.230;2022-09-16T06:40:52;23.70;99.90
45765;DHT22;31474;45.332;10.230;2022-09-16T06:43:17;23.50;99.90
45765;DHT22;31474;45.332;10.230;2022-09-16T06:45:43;23.70;99.90
45765;DHT22;31474;45.332;10.230;2022-09-16T06:48:09;23.80;99.90
45765;DHT22;31474;45.332;10.230;2022-09-16T06:50:34;23.90;99.90
45765;DHT22;31474;45.332;10.230;2022-09-16T06:53:00;23.90;99.90
45765;DHT22;31474;45.332;10.230;2022-09-16T06:55:26;24.00;99.90
45765;DHT22;31474;45.332;10.230;2022-09-16T06:57:52;24.20;99.90
45765;DHT22;31474;45.332;10.230;2022-09-16T07:00:17;24.30;99.90
45765;DHT22;31474;45.332;10.230;2022-09-16T07:02:43;24.40;99.90
45765;DHT22;31474;45.332;10.230;2022-09-16T07:05:08;24.50;99.90
45765;DHT22;31474;45.332;10.230;2022-09-16T07:07:36;24.70;99.90
45765;DHT22;31474;45.332;10.230;2022-09-16T07:10:05;24.80;99.90
45765;DHT22;31474;45.332;10.230;2022-09-16T07:12:31;25.00;99.90
45765;DHT22;31474;45.332;10.230;2022-09-16T07:14:56;25.10;99.90
45765;DHT22;31474;45.332;10.230;2022-09-16T07:17:22;25.20;99.90
45765;DHT22;31474;45.332;10.230;2022-09-16T07:19:51;25.20;99.90
45765;DHT22;31474;45.332;10.230;2022-09-16T07:22:17;25.20;99.90
45765;DHT22;31474;45.332;10.230;2022-09-16T07:24:43;25.30;99.90
45765;DHT22;31474;45.332;10.230;2022-09-16T07:27:10;25.40;99.90
45765;DHT22;31474;45.332;10.230;2022-09-16T07:29:36;25.60;99.90
45765;DHT22;31474;45.332;10.230;2022-09-16T07:32:02;25.70;99.90
45765;DHT22;31474;45.332;10.230;2022-09-16T07:34:28;25.90;99.90
45765;DHT22;31474;45.332;10.230;2022-09-16T07:36:53;25.90;99.90
45765;DHT22;31474;45.332;10.230;2022-09-16T07:39:21;25.90;99.90
45765;DHT22;31474;45.332;10.230;2022-09-16T07:41:47;26.00;99.90
45765;DHT22;31474;45.332;10.230;2022-09-16T07:44:14;26.10;99.90
45765;DHT22;31474;45.332;10.230;2022-09-16T07:46:40;26.20;99.90
45765;DHT22;31474;45.332;10.230;2022-09-16T07:49:08;26.30;99.90
45765;DHT22;31474;45.332;10.230;2022-09-16T07:51:35;26.40;99.90
45765;DHT22;31474;45.332;10.230;2022-09-16T07:54:03;26.30;99.90
45765;DHT22;31474;45.332;10.230;2022-09-16T07:56:32;26.30;99.90
45765;DHT22;31474;45.332;10.230;2022-09-16T07:58:59;26.30;99.90
45765;DHT22;31474;45.332;10.230;2022-09-16T08:01:25;26.20;99.90
45765;DHT22;31474;45.332;10.230;2022-09-16T08:03:52;26.30;99.90
45765;DHT22;31474;45.332;10.230;2022-09-16T08:06:24;26.60;99.90
45765;DHT22;31474;45.332;10.230;2022-09-16T08:08:55;26.60;99.90
45765;DHT22;31474;45.332;10.230;2022-09-16T08:11:21;26.70;99.90
45765;DHT22;31474;45.332;10.230;2022-09-16T08:13:47;26.70;99.90
45765;DHT22;31474;45.332;10.230;2022-09-16T08:16:16;26.60;99.90
45765;DHT22;31474;45.332;10.230;2022-09-16T08:18:42;26.60;99.90
45765;DHT22;31474;45.332;10.230;2022-09-16T08:21:19;26.80;99.90
45765;DHT22;31474;45.332;10.230;2022-09-16T08:23:46;26.70;99.90
45765;DHT22;31474;45.332;10.230;2022-09-16T08:26:13;26.80;99.90
45765;DHT22;31474;45.332;10.230;2022-09-16T08:28:41;26.80;99.90
45765;DHT22;31474;45.332;10.230;2022-09-16T08:31:08;27.00;99.90
45765;DHT22;31474;45.332;10.230;2022-09-16T08:33:34;27.20;99.90
45765;DHT22;31474;45.332;10.230;2022-09-16T08:36:02;27.10;99.90
45765;DHT22;31474;45.332;10.230;2022-09-16T08:38:30;27.20;99.90
45765;DHT22;31474;45.332;10.230;2022-09-16T08:41:01;27.30;99.90
45765;DHT22;31474;45.332;10.230;2022-09-16T08:43:42;27.30;99.90
45765;DHT22;31474;45.332;10.230;2022-09-16T08:46:33;27.30;99.90
45765;DHT22;31474;45.332;10.230;2022-09-16T08:49:05;27.40;99.80
45765;DHT22;31474;45.332;10.230;2022-09-16T08:51:35;27.50;99.90
45765;DHT22;31474;45.332;10.230;2022-09-16T08:54:09;27.60;99.90
45765;DHT22;31474;45.332;10.230;2022-09-16T08:56:37;27.60;99.90
45765;DHT22;31474;45.332;10.230;2022-09-16T08:59:06;27.70;99.90
45765;DHT22;31474;45.332;10.230;2022-09-16T09:01:54;27.70;99.80
45765;DHT22;31474;45.332;10.230;2022-09-16T09:04:22;27.60;99.40
45765;DHT22;31474;45.332;10.230;2022-09-16T09:10:04;27.90;99.20
45765;DHT22;31474;45.332;10.230;2022-09-16T09:20:46;28.40;99.10
45765;DHT22;31474;45.332;10.230;2022-09-16T09:34:53;28.30;99.40
45765;DHT22;31474;45.332;10.230;2022-09-16T09:37:08;28.40;98.50
45765;DHT22;31474;45.332;10.230;2022-09-16T09:39:57;28.60;99.70
45765;DHT22;31474;45.332;10.230;2022-09-16T09:42:30;28.90;97.90
45765;DHT22;31474;45.332;10.230;2022-09-16T09:45:17;29.00;98.50
45765;DHT22;31474;45.332;10.230;2022-09-16T09:50:43;28.90;98.10
45765;DHT22;31474;45.332;10.230;2022-09-16T09:53:32;28.90;98.80
45765;DHT22;31474;45.332;10.230;2022-09-16T09:56:24;29.00;98.10
45765;DHT22;31474;45.332;10.230;2022-09-16T09:59:00;29.00;98.30
45765;DHT22;31474;45.332;10.230;2022-09-16T10:01:27;29.10;98.90
45765;DHT22;31474;45.332;10.230;2022-09-16T10:03:54;29.10;98.30
45765;DHT22;31474;45.332;10.230;2022-09-16T10:06:26;28.90;98.40
45765;DHT22;31474;45.332;10.230;2022-09-16T10:08:55;29.00;98.40
45765;DHT22;31474;45.332;10.230;2022-09-16T10:11:29;29.00;98.40
45765;DHT22;31474;45.332;10.230;2022-09-16T10:14:00;29.10;98.30
45765;DHT22;31474;45.332;10.230;2022-09-16T10:16:33;29.10;98.30
45765;DHT22;31474;45.332;10.230;2022-09-16T10:19:19;29.00;98.70
45765;DHT22;31474;45.332;10.230;2022-09-16T10:24:38;29.00;98.10
45765;DHT22;31474;45.332;10.230;2022-09-16T10:27:37;28.90;98.20
45765;DHT22;31474;45.332;10.230;2022-09-16T10:30:17;29.00;97.90
45765;DHT22;31474;45.332;10.230;2022-09-16T10:32:54;28.80;98.20
45765;DHT22;31474;45.332;10.230;2022-09-16T10:35:29;28.80;97.90
45765;DHT22;31474;45.332;10.230;2022-09-16T10:37:57;29.00;98.20
45765;DHT22;31474;45.332;10.230;2022-09-16T10:40:24;29.30;98.80
45765;DHT22;31474;45.332;10.230;2022-09-16T10:42:52;29.50;98.70
45765;DHT22;31474;45.332;10.230;2022-09-16T10:45:25;29.60;98.20
45765;DHT22;31474;45.332;10.230;2022-09-16T10:47:55;29.80;97.60
45765;DHT22;31474;45.332;10.230;2022-09-16T10:50:21;29.70;97.80
45765;DHT22;31474;45.332;10.230;2022-09-16T10:52:48;29.40;97.80
45765;DHT22;31474;45.332;10.230;2022-09-16T10:57:53;29.30;97.10
45765;DHT22;31474;45.332;10.230;2022-09-16T11:00:22;29.10;97.20
45765;DHT22;31474;45.332;10.230;2022-09-16T11:20:57;28.60;97.10
45765;DHT22;31474;45.332;10.230;2022-09-16T11:31:42;28.60;97.90
45765;DHT22;31474;45.332;10.230;2022-09-16T11:39:56;29.10;96.80
45765;DHT22;31474;45.332;10.230;2022-09-16T11:42:41;29.10;96.70
45765;DHT22;31474;45.332;10.230;2022-09-16T11:51:16;29.30;97.30
45765;DHT22;31474;45.332;10.230;2022-09-16T11:56:38;29.70;96.50
45765;DHT22;31474;45.332;10.230;2022-09-16T12:01:44;29.90;95.70
45765;DHT22;31474;45.332;10.230;2022-09-16T12:04:31;29.90;96.50
45765;DHT22;31474;45.332;10.230;2022-09-16T12:07:20;30.10;95.90
45765;DHT22;31474;45.332;10.230;2022-09-16T12:12:21;30.30;96.40
45765;DHT22;31474;45.332;10.230;2022-09-16T12:15:01;30.40;95.70
45765;DHT22;31474;45.332;10.230;2022-09-16T12:17:30;30.40;95.20
45765;DHT22;31474;45.332;10.230;2022-09-16T12:20:14;30.20;95.80
45765;DHT22;31474;45.332;10.230;2022-09-16T12:22:46;30.10;95.40
45765;DHT22;31474;45.332;10.230;2022-09-16T12:25:25;30.20;96.30
45765;DHT22;31474;45.332;10.230;2022-09-16T12:28:06;30.30;95.20
45765;DHT22;31474;45.332;10.230;2022-09-16T12:30:41;30.40;95.50
45765;DHT22;31474;45.332;10.230;2022-09-16T12:36:11;30.50;95.50
45765;DHT22;31474;45.332;10.230;2022-09-16T12:38:38;30.60;95.40
45765;DHT22;31474;45.332;10.230;2022-09-16T12:53:03;30.40;94.00
45765;DHT22;31474;45.332;10.230;2022-09-16T12:55:58;30.20;94.00
45765;DHT22;31474;45.332;10.230;2022-09-16T13:01:45;30.30;94.00
45765;DHT22;31474;45.332;10.230;2022-09-16T13:04:21;30.30;94.90
45765;DHT22;31474;45.332;10.230;2022-09-16T13:06:51;30.30;94.80
45765;DHT22;31474;45.332;10.230;2022-09-16T13:09:25;30.40;94.70
45765;DHT22;31474;45.332;10.230;2022-09-16T13:12:21;30.40;94.20
45765;DHT22;31474;45.332;10.230;2022-09-16T13:14:52;30.40;93.80
45765;DHT22;31474;45.332;10.230;2022-09-16T13:19:53;30.60;93.50
45765;DHT22;31474;45.332;10.230;2022-09-16T13:22:57;30.60;94.40
45765;DHT22;31474;45.332;10.230;2022-09-16T13:25:28;30.60;94.40
45765;DHT22;31474;45.332;10.230;2022-09-16T13:30:43;30.60;94.40
45765;DHT22;31474;45.332;10.230;2022-09-16T13:35:39;30.60;93.70
45765;DHT22;31474;45.332;10.230;2022-09-16T13:41:00;30.40;92.80
45765;DHT22;31474;45.332;10.230;2022-09-16T13:43:36;30.40;92.80
45765;DHT22;31474;45.332;10.230;2022-09-16T13:46:29;30.50;94.10
45765;DHT22;31474;45.332;10.230;2022-09-16T13:49:16;30.50;93.40
45765;DHT22;31474;45.332;10.230;2022-09-16T13:51:45;30.60;92.70
45765;DHT22;31474;45.332;10.230;2022-09-16T13:54:32;30.50;92.70
45765;DHT22;31474;45.332;10.230;2022-09-16T14:02:27;30.50;92.90
45765;DHT22;31474;45.332;10.230;2022-09-16T14:07:59;30.60;91.80
45765;DHT22;31474;45.332;10.230;2022-09-16T14:13:16;30.70;91.90
45765;DHT22;31474;45.332;10.230;2022-09-16T14:15:46;30.70;92.70
45765;DHT22;31474;45.332;10.230;2022-09-16T14:18:18;30.60;92.00
45765;DHT22;31474;45.332;10.230;2022-09-16T14:21:14;30.60;91.40
45765;DHT22;31474;45.332;10.230;2022-09-16T14:23:41;30.50;91.40
45765;DHT22;31474;45.332;10.230;2022-09-16T14:26:11;30.50;93.10
45765;DHT22;31474;45.332;10.230;2022-09-16T14:28:37;30.50;92.30
45765;DHT22;31474;45.332;10.230;2022-09-16T14:31:08;30.50;93.00
45765;DHT22;31474;45.332;10.230;2022-09-16T14:33:46;30.60;92.30
45765;DHT22;31474;45.332;10.230;2022-09-16T14:36:26;30.60;92.20
45765;DHT22;31474;45.332;10.230;2022-09-16T14:39:00;30.60;91.70
45765;DHT22;31474;45.332;10.230;2022-09-16T14:41:35;30.60;92.70
45765;DHT22;31474;45.332;10.230;2022-09-16T14:46:58;30.60;92.10
45765;DHT22;31474;45.332;10.230;2022-09-16T14:49:27;30.60;91.70
45765;DHT22;31474;45.332;10.230;2022-09-16T14:51:58;30.60;92.60
45765;DHT22;31474;45.332;10.230;2022-09-16T14:54:26;30.50;92.00
45765;DHT22;31474;45.332;10.230;2022-09-16T14:56:57;30.50;92.50
45765;DHT22;31474;45.332;10.230;2022-09-16T14:59:36;30.60;91.80
45765;DHT22;31474;45.332;10.230;2022-09-16T15:04:40;30.50;91.20
45765;DHT22;31474;45.332;10.230;2022-09-16T15:07:16;30.40;91.60
45765;DHT22;31474;45.332;10.230;2022-09-16T15:10:05;30.40;90.80
45765;DHT22;31474;45.332;10.230;2022-09-16T15:12:45;30.30;90.50
45765;DHT22;31474;45.332;10.230;2022-09-16T15:15:22;30.30;91.10
45765;DHT22;31474;45.332;10.230;2022-09-16T15:18:08;30.20;90.20
45765;DHT22;31474;45.332;10.230;2022-09-16T15:20:37;30.20;90.50
45765;DHT22;31474;45.332;10.230;2022-09-16T15:23:04;30.10;91.70
45765;DHT22;31474;45.332;10.230;2022-09-16T15:25:32;30.10;91.80
45765;DHT22;31474;45.332;10.230;2022-09-16T15:28:16;30.10;92.10
45765;DHT22;31474;45.332;10.230;2022-09-16T15:30:50;30.00;90.80
45765;DHT22;31474;45.332;10.230;2022-09-16T15:33:40;30.00;91.00
45765;DHT22;31474;45.332;10.230;2022-09-16T15:36:06;29.80;90.50
45765;DHT22;31474;45.332;10.230;2022-09-16T15:38:32;29.80;91.50
45765;DHT22;31474;45.332;10.230;2022-09-16T15:41:12;29.80;91.30
45765;DHT22;31474;45.332;10.230;2022-09-16T15:43:41;29.70;90.30
45765;DHT22;31474;45.332;10.230;2022-09-16T15:46:23;29.70;91.10
45765;DHT22;31474;45.332;10.230;2022-09-16T15:48:55;29.70;90.80
45765;DHT22;31474;45.332;10.230;2022-09-16T15:51:33;29.70;90.80
45765;DHT22;31474;45.332;10.230;2022-09-16T16:00:00;29.50;94.30
45765;DHT22;31474;45.332;10.230;2022-09-16T16:05:24;29.30;95.00
45765;DHT22;31474;45.332;10.230;2022-09-16T16:07:58;29.20;94.90
45765;DHT22;31474;45.332;10.230;2022-09-16T16:10:25;29.10;94.90
45765;DHT22;31474;45.332;10.230;2022-09-16T16:12:53;29.10;94.80
45765;DHT22;31474;45.332;10.230;2022-09-16T16:15:30;29.00;94.90
45765;DHT22;31474;45.332;10.230;2022-09-16T16:18:03;28.90;95.00
45765;DHT22;31474;45.332;10.230;2022-09-16T16:20:31;28.80;94.90
45765;DHT22;31474;45.332;10.230;2022-09-16T16:22:58;28.70;95.00
45765;DHT22;31474;45.332;10.230;2022-09-16T16:25:25;28.60;95.10
45765;DHT22;31474;45.332;10.230;2022-09-16T16:27:51;28.60;95.20
45765;DHT22;31474;45.332;10.230;2022-09-16T16:30:17;28.50;95.20
45765;DHT22;31474;45.332;10.230;2022-09-16T16:32:44;28.50;95.20
45765;DHT22;31474;45.332;10.230;2022-09-16T16:35:10;28.50;95.20
45765;DHT22;31474;45.332;10.230;2022-09-16T16:37:36;28.40;95.20
45765;DHT22;31474;45.332;10.230;2022-09-16T16:40:02;28.30;94.90
45765;DHT22;31474;45.332;10.230;2022-09-16T16:42:28;28.30;95.00
45765;DHT22;31474;45.332;10.230;2022-09-16T16:44:54;28.30;95.10
45765;DHT22;31474;45.332;10.230;2022-09-16T16:47:21;28.20;94.90
45765;DHT22;31474;45.332;10.230;2022-09-16T16:49:46;28.20;95.00
45765;DHT22;31474;45.332;10.230;2022-09-16T16:52:12;28.10;95.10
45765;DHT22;31474;45.332;10.230;2022-09-16T16:54:38;28.10;95.10
45765;DHT22;31474;45.332;10.230;2022-09-16T16:57:08;28.00;95.10
45765;DHT22;31474;45.332;10.230;2022-09-16T16:59:33;28.00;95.20
45765;DHT22;31474;45.332;10.230;2022-09-16T17:01:59;28.00;95.30
45765;DHT22;31474;45.332;10.230;2022-09-16T17:04:25;28.00;95.30
45765;DHT22;31474;45.332;10.230;2022-09-16T17:06:51;28.00;95.40
45765;DHT22;31474;45.332;10.230;2022-09-16T17:09:17;27.90;95.40
45765;DHT22;31474;45.332;10.230;2022-09-16T17:12:09;27.80;95.50
45765;DHT22;31474;45.332;10.230;2022-09-16T17:14:34;27.80;95.70
45765;DHT22;31474;45.332;10.230;2022-09-16T17:17:01;27.70;95.70
45765;DHT22;31474;45.332;10.230;2022-09-16T17:19:28;27.70;95.80
45765;DHT22;31474;45.332;10.230;2022-09-16T17:21:54;27.60;95.90
45765;DHT22;31474;45.332;10.230;2022-09-16T17:24:20;27.60;96.00
45765;DHT22;31474;45.332;10.230;2022-09-16T17:26:46;27.60;96.00
45765;DHT22;31474;45.332;10.230;2022-09-16T17:29:13;27.50;96.40
45765;DHT22;31474;45.332;10.230;2022-09-16T17:31:40;27.50;96.20
45765;DHT22;31474;45.332;10.230;2022-09-16T17:34:11;27.50;96.30
45765;DHT22;31474;45.332;10.230;2022-09-16T17:36:39;27.40;96.40
45765;DHT22;31474;45.332;10.230;2022-09-16T17:39:07;27.40;96.50
45765;DHT22;31474;45.332;10.230;2022-09-16T17:41:35;27.30;96.60
45765;DHT22;31474;45.332;10.230;2022-09-16T17:44:05;27.30;96.60
45765;DHT22;31474;45.332;10.230;2022-09-16T17:46:32;27.20;96.80
45765;DHT22;31474;45.332;10.230;2022-09-16T17:49:04;27.10;96.80
45765;DHT22;31474;45.332;10.230;2022-09-16T17:51:31;27.10;97.10
45765;DHT22;31474;45.332;10.230;2022-09-16T17:53:57;27.10;97.00
45765;DHT22;31474;45.332;10.230;2022-09-16T17:56:23;27.10;97.00
45765;DHT22;31474;45.332;10.230;2022-09-16T17:58:51;27.10;97.00
45765;DHT22;31474;45.332;10.230;2022-09-16T18:01:19;27.00;97.20
45765;DHT22;31474;45.332;10.230;2022-09-16T18:03:48;27.00;97.20
45765;DHT22;31474;45.332;10.230;2022-09-16T18:06:20;26.90;97.30
45765;DHT22;31474;45.332;10.230;2022-09-16T18:08:47;26.90;97.40
45765;DHT22;31474;45.332;10.230;2022-09-16T18:11:14;27.00;97.40
45765;DHT22;31474;45.332;10.230;2022-09-16T18:13:40;26.90;97.30
45765;DHT22;31474;45.332;10.230;2022-09-16T18:16:10;26.80;97.40
45765;DHT22;31474;45.332;10.230;2022-09-16T18:18:37;26.80;97.60
45765;DHT22;31474;45.332;10.230;2022-09-16T18:21:05;26.70;97.60